This is the latest recevied weather packets stored in our database for station/object W1SCW. If no packets are shown the sender has not sent any weather packets the latest 10 day(s).
| Time | Temp. | Humidity | Pressure | Rain* | Wind** | Luminosity | Snow |
|---|---|---|---|---|---|---|---|
| 1777669656 | 16.11° C | 99% | 1009.2 hPa | 0.51 mm | - | 43 W/m² | - |
| 1777669353 | 16.11° C | 99% | 1008.9 hPa | 0 mm | - | 25 W/m² | - |
| 1777669049 | 16.67° C | 99% | 1008.1 hPa | 0.51 mm | - | 61 W/m² | - |
| 1777668746 | 16.11° C | 99% | 1007.8 hPa | 1.78 mm | - | 77 W/m² | - |
| 1777668443 | 16.11° C | 99% | 1008.6 hPa | 3.56 mm | - | 29 W/m² | - |
| 1777668140 | 16.67° C | 99% | 1008.9 hPa | 3.05 mm | - | 16 W/m² | - |
| 1777667836 | 16.67° C | 99% | 1008.4 hPa | 1.78 mm | - | 24 W/m² | - |
| 1777667533 | 16.67° C | 99% | 1008.4 hPa | 7.87 mm | - | 25 W/m² | - |
| 1777667230 | 16.67° C | 99% | 1008.9 hPa | 7.11 mm | - | 13 W/m² | - |
| 1777666927 | 16.67° C | 99% | 1008.3 hPa | 1.27 mm | - | 13 W/m² | - |
| 1777666624 | 16.67° C | 99% | 1007.9 hPa | 4.32 mm | - | 18 W/m² | - |
| 1777666321 | 16.67° C | 99% | 1008.1 hPa | 5.33 mm | - | 30 W/m² | - |
| 1777666017 | 16.67° C | 99% | 1007.9 hPa | 6.1 mm | - | 30 W/m² | - |
| 1777665715 | 16.67° C | 99% | 1007.6 hPa | 4.32 mm | - | 36 W/m² | - |
| 1777665412 | 16.67° C | 99% | 1008.3 hPa | 8.38 mm | - | 23 W/m² | - |
| 1777665108 | 17.22° C | 99% | 1008.2 hPa | 7.11 mm | - | 42 W/m² | - |
| 1777664804 | 17.22° C | 99% | 1008.4 hPa | 1.27 mm | - | 30 W/m² | - |
| 1777664499 | 17.22° C | 99% | 1007.7 hPa | 0 mm | - | 43 W/m² | - |
| 1777664197 | 17.22° C | 99% | 1007.4 hPa | 0 mm | - | 51 W/m² | - |
| 1777663895 | 16.67° C | 99% | 1007.9 hPa | 0 mm | - | 67 W/m² | - |
| 1777663592 | 17.22° C | 99% | 1008.3 hPa | 0.51 mm | - | 80 W/m² | - |
| 1777663290 | 17.22° C | 99% | 1008 hPa | 0.51 mm | - | 73 W/m² | - |
| 1777662986 | 17.22° C | 99% | 1008 hPa | 1.27 mm | - | 70 W/m² | - |
| 1777662684 | 17.22° C | 99% | 1007.6 hPa | 2.29 mm | - | 92 W/m² | - |
| 1777662380 | 16.67° C | 99% | 1007.3 hPa | 1.78 mm | - | 91 W/m² | - |
* Rain latest hour (hover to see other rain measurements)
** Current wind speed in m/s (hover to see current wind gust speed)